createdAt,value
2023-03-15T00:04:39.550Z,7.36
2023-03-15T00:09:41.071Z,7.27
2023-03-15T00:14:42.636Z,7.23
2023-03-15T00:19:44.124Z,7.06
2023-03-15T00:24:45.617Z,6.93
2023-03-15T00:29:47.269Z,6.95
2023-03-15T00:34:48.813Z,6.93
2023-03-15T00:39:50.335Z,7.02
2023-03-15T00:44:51.850Z,6.99
2023-03-15T00:49:53.380Z,7.10
2023-03-15T00:54:57.215Z,7.07
2023-03-15T00:59:58.843Z,7.08
2023-03-15T01:05:02.161Z,6.93
2023-03-15T01:10:05.483Z,6.96
2023-03-15T01:15:08.917Z,7.12
2023-03-15T01:20:13.863Z,7.05
2023-03-15T01:25:16.871Z,7.13
2023-03-15T01:30:19.793Z,7.11
2023-03-15T01:35:22.781Z,7.06
2023-03-15T01:40:24.480Z,6.97
2023-03-15T01:46:06.182Z,6.93
2023-03-15T01:51:26.496Z,7.01
2023-03-15T01:56:29.085Z,7.06
2023-03-15T02:01:31.982Z,7.03
2023-03-15T02:06:34.611Z,7.17
2023-03-15T02:11:36.630Z,6.80
2023-03-15T02:16:40.005Z,6.88
2023-03-15T02:22:05.190Z,7.04
2023-03-15T02:27:07.231Z,7.26
2023-03-15T02:32:08.891Z,7.09
2023-03-15T02:37:10.384Z,7.23
2023-03-15T02:42:12.028Z,7.40
2023-03-15T02:47:18.033Z,7.35
2023-03-15T02:52:21.175Z,7.13
2023-03-15T02:57:22.730Z,7.29
2023-03-15T03:02:25.094Z,7.19
2023-03-15T03:07:26.670Z,7.09
2023-03-15T03:12:34.328Z,7.01
2023-03-15T03:17:36.036Z,6.94
2023-03-15T03:22:38.665Z,6.96
2023-03-15T03:27:41.417Z,6.97
2023-03-15T03:32:45.156Z,6.88
2023-03-15T03:37:47.875Z,6.77
2023-03-15T03:42:53.451Z,6.69
2023-03-15T03:47:55.424Z,6.49
2023-03-15T03:52:57.376Z,6.38
2023-03-15T03:58:04.409Z,6.19
2023-03-15T04:03:28.710Z,6.04
2023-03-15T04:08:38.841Z,5.90
2023-03-15T04:13:42.005Z,5.66
2023-03-15T04:18:44.812Z,5.57
2023-03-15T04:23:46.659Z,5.40
2023-03-15T04:28:58.759Z,5.45
2023-03-15T04:34:04.253Z,5.44
2023-03-15T04:39:32.004Z,5.52
2023-03-15T04:44:52.560Z,5.58
2023-03-15T04:50:12.057Z,5.57
2023-03-15T04:55:39.713Z,5.50
2023-03-15T05:00:56.099Z,5.70
2023-03-15T05:06:24.662Z,5.67
2023-03-15T05:11:40.964Z,5.61
2023-03-15T05:17:09.658Z,5.60
2023-03-15T05:22:46.469Z,5.28
2023-03-15T05:28:24.403Z,5.00
2023-03-15T05:33:49.042Z,4.97
2023-03-15T05:39:25.864Z,4.93
2023-03-15T05:44:42.090Z,5.01
2023-03-15T05:50:10.130Z,4.93
2023-03-15T05:55:23.649Z,4.96
2023-03-15T06:00:37.998Z,4.87
2023-03-15T06:05:48.921Z,4.61
2023-03-15T06:10:56.160Z,4.54
2023-03-15T06:15:57.800Z,4.55
2023-03-15T06:20:59.660Z,4.71
2023-03-15T06:26:02.155Z,4.75
2023-03-15T06:31:11.361Z,4.93
2023-03-15T06:36:22.427Z,5.17
2023-03-15T06:41:24.766Z,5.41
2023-03-15T06:46:31.994Z,5.50
2023-03-15T06:51:33.678Z,5.64
2023-03-15T06:56:35.238Z,5.84
2023-03-15T07:01:36.750Z,6.01
2023-03-15T07:06:38.286Z,6.12
2023-03-15T07:11:39.751Z,6.23
2023-03-15T07:16:41.262Z,6.55
2023-03-15T07:21:42.708Z,7.09
2023-03-15T07:26:44.193Z,7.55
2023-03-15T07:31:45.644Z,7.91
2023-03-15T07:36:47.169Z,7.87
2023-03-15T07:41:49.218Z,7.63
2023-03-15T07:46:59.113Z,7.98
2023-03-15T07:52:00.617Z,8.36
2023-03-15T07:57:02.151Z,8.77
2023-03-15T08:02:03.684Z,8.67
2023-03-15T08:07:05.584Z,8.65
2023-03-15T08:12:07.489Z,8.62
2023-03-15T08:17:09.137Z,8.61
2023-03-15T08:22:11.082Z,8.65
2023-03-15T08:27:12.637Z,8.79
2023-03-15T08:32:14.154Z,8.64
2023-03-15T08:37:15.620Z,8.19
2023-03-15T08:42:17.048Z,7.97
2023-03-15T08:47:18.865Z,7.52
2023-03-15T08:52:20.705Z,7.39
2023-03-15T08:57:22.211Z,7.74
2023-03-15T09:02:23.846Z,7.99
2023-03-15T09:07:25.327Z,8.19
2023-03-15T09:12:26.788Z,8.46
2023-03-15T09:17:28.263Z,8.37
2023-03-15T09:22:38.898Z,8.33
2023-03-15T09:27:41.242Z,8.06
2023-03-15T09:32:42.816Z,7.86
2023-03-15T09:37:44.539Z,7.87
2023-03-15T09:43:06.369Z,8.09
2023-03-15T09:48:21.058Z,8.25
2023-03-15T09:53:35.975Z,8.75
2023-03-15T09:58:37.645Z,8.60
2023-03-15T10:03:48.470Z,8.67
2023-03-15T10:08:53.314Z,9.18
2023-03-15T10:14:09.084Z,9.37
2023-03-15T10:19:25.579Z,9.66
2023-03-15T10:24:48.716Z,9.96
2023-03-15T10:29:55.086Z,10.50
2023-03-15T10:34:58.386Z,10.65
2023-03-15T10:40:00.196Z,10.66
2023-03-15T10:45:22.158Z,9.92
2023-03-15T10:50:28.030Z,10.06
2023-03-15T10:55:35.786Z,10.48
2023-03-15T11:00:37.789Z,10.70
2023-03-15T11:05:43.727Z,10.16
2023-03-15T11:10:47.169Z,10.22
2023-03-15T11:16:05.000Z,9.66
2023-03-15T11:21:11.971Z,9.53
2023-03-15T11:26:32.241Z,9.66
2023-03-15T11:31:35.981Z,9.83
2023-03-15T11:36:41.401Z,10.36
2023-03-15T11:41:47.411Z,10.75
2023-03-15T11:46:55.575Z,10.62
2023-03-15T11:51:57.401Z,11.01
2023-03-15T11:57:08.284Z,11.26
2023-03-15T12:02:09.884Z,11.31
2023-03-15T12:07:17.407Z,11.18
2023-03-15T12:12:24.917Z,10.85
2023-03-15T12:17:26.431Z,10.37
2023-03-15T12:22:32.666Z,10.06
2023-03-15T12:27:36.682Z,10.42
2023-03-15T12:32:48.898Z,10.86
2023-03-15T12:37:52.826Z,10.90
2023-03-15T12:42:54.271Z,11.30
2023-03-15T12:47:55.739Z,11.48
2023-03-15T12:53:00.384Z,11.32
2023-03-15T12:58:03.310Z,11.58
2023-03-15T13:03:18.719Z,11.79
2023-03-15T13:08:24.873Z,11.75
2023-03-15T13:13:44.964Z,11.89
2023-03-15T13:18:52.428Z,11.80
2023-03-15T13:23:57.698Z,11.73
2023-03-15T13:29:12.720Z,11.13
2023-03-15T13:34:21.580Z,11.22
2023-03-15T13:39:25.975Z,11.45
2023-03-15T13:44:29.842Z,11.57
2023-03-15T13:49:33.326Z,11.70
2023-03-15T13:54:34.926Z,11.45
2023-03-15T14:00:00.194Z,11.09
2023-03-15T14:05:06.331Z,10.96
2023-03-15T14:10:28.108Z,11.01
2023-03-15T14:15:29.493Z,11.50
2023-03-15T14:20:54.705Z,12.04
2023-03-15T14:26:18.213Z,11.43
2023-03-15T14:31:23.090Z,11.38
2023-03-15T14:36:31.256Z,11.33
2023-03-15T14:41:33.318Z,11.13
2023-03-15T14:46:37.376Z,11.95
2023-03-15T14:51:38.976Z,13.42
2023-03-15T14:56:42.612Z,13.36
2023-03-15T15:01:50.366Z,13.22
2023-03-15T15:06:51.998Z,15.01
2023-03-15T15:11:54.386Z,15.69
2023-03-15T15:16:56.029Z,16.27
2023-03-15T15:21:57.666Z,16.10
2023-03-15T15:26:59.219Z,15.81
2023-03-15T15:32:00.794Z,13.97
2023-03-15T15:37:02.378Z,12.92
2023-03-15T15:42:04.030Z,13.24
2023-03-15T15:47:05.591Z,13.19
2023-03-15T15:52:11.656Z,13.38
2023-03-15T15:57:13.534Z,13.65
2023-03-15T16:02:16.548Z,13.39
2023-03-15T16:07:18.158Z,12.90
2023-03-15T16:12:20.063Z,12.12
2023-03-15T16:17:23.324Z,11.97
2023-03-15T16:22:24.840Z,12.20
2023-03-15T16:27:27.919Z,12.56
2023-03-15T16:32:43.381Z,12.83
2023-03-15T16:37:46.107Z,12.99
2023-03-15T16:42:48.595Z,12.81
2023-03-15T16:47:50.459Z,12.45
2023-03-15T16:52:54.820Z,12.29
2023-03-15T16:57:56.920Z,12.03
2023-03-15T17:02:58.398Z,11.84
2023-03-15T17:08:00.003Z,12.18
2023-03-15T17:13:02.685Z,11.64
2023-03-15T17:18:13.622Z,11.56
2023-03-15T17:23:16.241Z,11.61
2023-03-15T17:28:17.755Z,11.19
2023-03-15T17:33:19.280Z,11.19
2023-03-15T17:38:30.435Z,11.10
2023-03-15T17:43:31.907Z,10.93
2023-03-15T17:48:33.365Z,10.82
2023-03-15T17:53:35.900Z,10.87
2023-03-15T17:58:37.641Z,10.62
2023-03-15T18:03:39.600Z,9.95
2023-03-15T18:08:42.208Z,10.13
2023-03-15T18:13:43.782Z,10.02
2023-03-15T18:18:45.417Z,9.62
2023-03-15T18:23:47.532Z,9.47
2023-03-15T18:28:49.062Z,9.45
2023-03-15T18:33:51.666Z,9.33
2023-03-15T18:38:53.242Z,9.04
2023-03-15T18:43:54.708Z,8.84
2023-03-15T18:48:56.322Z,8.95
2023-03-15T18:54:00.559Z,8.68
2023-03-15T18:59:02.112Z,8.43
2023-03-15T19:04:03.915Z,8.12
2023-03-15T19:09:05.683Z,7.81
2023-03-15T19:14:08.467Z,7.58
2023-03-15T19:19:09.884Z,7.53
2023-03-15T19:24:11.519Z,7.70
2023-03-15T19:29:12.955Z,7.70
2023-03-15T19:34:14.482Z,7.74
2023-03-15T19:39:16.056Z,7.72
2023-03-15T19:44:17.573Z,7.76
2023-03-15T19:49:19.109Z,7.84
2023-03-15T19:54:20.558Z,7.85
2023-03-15T19:59:22.072Z,7.97
2023-03-15T20:04:23.553Z,7.92
2023-03-15T20:09:25.064Z,8.02
2023-03-15T20:14:26.575Z,8.09
2023-03-15T20:19:28.102Z,7.99
2023-03-15T20:24:29.690Z,7.87
2023-03-15T20:29:31.769Z,7.94
2023-03-15T20:34:33.430Z,8.12
2023-03-15T20:39:35.204Z,7.84
2023-03-15T20:44:37.416Z,7.89
2023-03-15T20:49:39.069Z,7.64
2023-03-15T20:54:41.224Z,7.55
2023-03-15T20:59:43.047Z,7.54
2023-03-15T21:04:44.721Z,7.55
2023-03-15T21:09:46.225Z,7.30
2023-03-15T21:14:47.770Z,7.19
2023-03-15T21:19:49.284Z,7.16
2023-03-15T21:24:56.034Z,7.01
2023-03-15T21:29:58.248Z,6.76
2023-03-15T21:34:59.827Z,6.52
2023-03-15T21:40:01.328Z,6.56
2023-03-15T21:45:03.025Z,6.52
2023-03-15T21:50:04.932Z,6.30
2023-03-15T21:55:08.401Z,5.80
2023-03-15T22:00:10.949Z,5.90
2023-03-15T22:05:13.384Z,5.68
2023-03-15T22:10:15.250Z,6.01
2023-03-15T22:15:16.796Z,5.69
2023-03-15T22:20:18.402Z,5.71
2023-03-15T22:25:19.935Z,5.83
2023-03-15T22:30:21.569Z,5.85
2023-03-15T22:35:23.212Z,5.60
2023-03-15T22:40:27.418Z,5.48
2023-03-15T22:45:29.158Z,5.44
2023-03-15T22:50:31.053Z,5.36
2023-03-15T22:55:32.527Z,5.36
2023-03-15T23:00:34.045Z,5.41
2023-03-15T23:05:35.559Z,5.26
2023-03-15T23:10:37.376Z,5.15
2023-03-15T23:15:39.064Z,5.12
2023-03-15T23:20:41.716Z,5.12
2023-03-15T23:25:43.931Z,5.19
2023-03-15T23:30:45.379Z,5.02
2023-03-15T23:35:46.909Z,4.98
2023-03-15T23:40:58.480Z,4.95
2023-03-15T23:46:02.698Z,4.98
2023-03-15T23:51:04.339Z,5.03
2023-03-15T23:56:06.220Z,4.83
